Nearby METAR Reports

 

CYFC - Fredericton Airp, New Brunswick
Distance from station: E 14km
Updated: Fri, 20-Sep-2019 7:00pm ADT
Clear
Clear
 Wind from W
Wind: W 6 km/h
Temperature: 22°C
Dew Point: 15°C
Humidity: 65%
Barometer: 1013.2 hPa
Clouds: Clear
Visibility: 14 km
2019/09/20 22:00 CYFC 202200Z AUTO 28003KT 9SM CLR 22/15 A2992 RMK SLP135 DENSITY ALT 800FT
CYCX - Gagetown (can M, New Brunswick
Distance from station: E 22km
Updated: Fri, 20-Sep-2019 7:00pm ADT
Few Clouds
Few Clouds
 Wind from W
Wind: W 7 km/h
Temperature: 22°C
Dew Point: 14°C
Humidity: 61%
Barometer: 1013.5 hPa
Clouds: Few Clouds
Visibility: 24 km
Cloud details: Few Clouds 3048 m
2019/09/20 22:00 CYCX 202200Z 28004KT 15SM FEW100 22/14 A2993 RMK AC1 DA1188FT SLP135
 
CYQM - Moncton Airport, New Brunswick
Distance from station: ENE 159km
Updated: Fri, 20-Sep-2019 7:00pm ADT
Few Clouds
Few Clouds
 Wind from WSW
Wind: WSW 20 km/h
Temperature: 21°C
Dew Point: 15°C
Humidity: 69%
Barometer: 1011.5 hPa
Clouds: Few Clouds
Visibility: 24 km
Cloud details: Few Clouds 2286 m
2019/09/20 22:00 CYQM 202200Z 25011KT 15SM FEW075 21/15 A2987 RMK AC1 SLP116 DENSITY ALT 1100FT
CYSJ - Saint John, New Brunswick
Distance from station: SE 88km
Updated: Fri, 20-Sep-2019 7:00pm ADT
Few Clouds
Few Clouds
 Wind from W
Wind: W 11 km/h
Temperature: 20°C
Dew Point: 15°C
Humidity: 73%
Barometer: 1013.2 hPa
Clouds: Few Clouds
Visibility: 24 km
Cloud details: Few Clouds 4572 m
2019/09/20 22:00 CYSJ 202200Z 26006KT 15SM FEW150 20/15 A2992 RMK AC1 SLP136 DENSITY ALT 1100FT
 
CWPE - Point Lepreau, New Brunswick
Distance from station: SSE 90km
Updated: Fri, 20-Sep-2019 7:00pm ADT

 Wind from W
Wind: W 6 km/h
Temperature: 16°C
Dew Point: 12°C
Humidity: 77%
2019/09/20 22:00 CWPE 202200Z AUTO 27003KT 16/12 RMK AO1 SLP132 T01610124 56009
CWSS - St. Stephen (mar, New Brunswick
Distance from station: SSW 85km
Updated: Fri, 20-Sep-2019 7:00pm ADT

 Wind from W
Wind: W 7 km/h
Temperature: 23°C
Dew Point: 15°C
Humidity: 61%
2019/09/20 22:00 CWSS 202200Z AUTO 28004KT 23/15 RMK AO1 SLP143 T02290146 55003
 
CYHZ - Halifax Intl Arp, Nova Scotia
Distance from station: ESE 273km
Updated: Fri, 20-Sep-2019 7:00pm ADT
Few Clouds
Few Clouds
 Wind from WNW
Wind: WNW 11 km/h
Temperature: 20°C
Dew Point: 12°C
Humidity: 60%
Barometer: 1011.9 hPa
Clouds: Few Clouds
Visibility: 24 km
Cloud details: Few Clouds 8534 m
2019/09/20 22:00 CYHZ 202200Z 30006KT 15SM FEW280 20/12 A2988 RMK CI1 CI TR SLP123 DENSITY ALT 1200FT
CYAW - Shearwater(Can M, Nova Scotia
Distance from station: ESE 285km
Updated: Thu, 19-Sep-2019 8:00pm ADT
NOT Current
Partly cloudy
Partly cloudy
 Wind from calm
Wind: Calm
Temperature: 12°C
Dew Point: 7°C
Humidity: 72%
Barometer: 1023.4 hPa
Clouds: Partly cloudy
Visibility: 24 km
Cloud details: Partly cloudy 7010 m
2019/09/19 23:00 CYAW 192300Z 00000KT 15SM SCT230 12/07 A3022 RMK CI4 DA-418FT LAST OBS/NEXT 231000 UTC SLP234
 
CYZX - Greenwood (can M, Nova Scotia
Distance from station: SE 169km
Updated: Fri, 20-Sep-2019 7:00pm ADT
Few Clouds
Few Clouds
 Wind from W
Wind: W 15 km/h
Temperature: 20°C
Dew Point: 13°C
Humidity: 64%
Barometer: 1013.2 hPa
Clouds: Few Clouds
Visibility: 24 km
Cloud details: Few Clouds 7620 m
2019/09/20 22:00 CYZX 202200Z 27008KT 15SM FEW250 20/13 A2992 RMK CI1 SLP132
CYQI - Yarmouth Airport, Nova Scotia
Distance from station: SSE 230km
Updated: Fri, 20-Sep-2019 7:00pm ADT
Few Clouds
Few Clouds
 Wind from W
Wind: W 13 km/h
Temperature: 14°C
Dew Point: 12°C
Humidity: 88%
Barometer: 1014.9 hPa
Clouds: Few Clouds
Visibility: 24 km
Cloud details: Few Clouds 3353 m
Few Clouds 7925 m
2019/09/20 22:00 CYQI 202200Z 28007KT 15SM FEW110 FEW260 14/12 A2997 RMK AC1CI2 AC TR SLP152
 
KHUL - Houlton, Maine, USA
Distance from station: WNW 90km
Updated: Fri, 20-Sep-2019 6:53pm ADT
Mostly cloudy
Mostly cloudy
 Wind from NNW
Wind: NNW 6 km/h
Temperature: 23°C
Dew Point: 14°C
Humidity: 57%
Barometer: 1013.9 hPa
Clouds: Mostly cloudy
Visibility: 16 km
Cloud details: Partly cloudy 1524 m
Mostly cloudy 2134 m
2019/09/20 21:53 KHUL 202153Z AUTO 33003KT 10SM SCT050 BKN070 23/14 A2994 RMK AO2 SLP141 T02280144
KPQI - Presque Isle, Maine, USA
Distance from station: NW 137km
Updated: Fri, 20-Sep-2019 6:56pm ADT
Overcast
Overcast
 Wind from W
Wind: W 9 km/h
Temperature: 23°C
Dew Point: 16°C
Humidity: 65%
Barometer: 1014.6 hPa
Clouds: Overcast
Visibility: 16 km
Cloud details: Overcast 1524 m
2019/09/20 21:56 KPQI 202156Z AUTO 27005KT 10SM OVC050 23/16 A2996 RMK AO2 SLP167 T02330156
 
KCAR - Caribou, Maine, USA
Distance from station: NW 151km
Updated: Fri, 20-Sep-2019 6:54pm ADT
Clear
Clear
 Wind from varies
Wind: varies 7 km/h
Temperature: 23°C
Dew Point: 15°C
Humidity: 61%
Barometer: 1013.9 hPa
Clouds: Clear
Visibility: 16 km
2019/09/20 21:54 KCAR 202154Z AUTO VRB04KT 10SM CLR 23/15 A2994 RMK AO2 SLP142 T02330150
KMLT - Millinocket, Maine, USA
Distance from station: W 157km
Updated: Fri, 20-Sep-2019 6:53pm ADT
Clear
Clear
 Wind from W
Wind: W 9 km/h
Temperature: 24°C
Dew Point: 13°C
Humidity: 50%
Barometer: 1015.9 hPa
Clouds: Clear
Visibility: 16 km
2019/09/20 21:53 KMLT 202153Z AUTO 28005KT 10SM CLR 24/13 A3000 RMK AO2 SLP163 T02390128
 
KBGR - Bangor, Maine, USA
Distance from station: SW 203km
Updated: Fri, 20-Sep-2019 6:53pm ADT
Few Clouds
Few Clouds
 Wind from W
Wind: W 9 km/h
Temperature: 23°C
Dew Point: 13°C
Humidity: 53%
Barometer: 1015.9 hPa
Clouds: Few Clouds
Visibility: 16 km
Cloud details: Few Clouds 3048 m
Few Clouds 7620 m
2019/09/20 21:53 KBGR 202153Z 27005KT 10SM FEW100 FEW250 23/13 A3000 RMK AO2 SLP159 T02330133
KBHB - Bar Harbor, Maine, USA
Distance from station: SW 204km
Updated: Fri, 20-Sep-2019 6:56pm ADT
Clear
Clear
 Wind from W
Wind: W 6 km/h
Temperature: 22°C
Dew Point: 14°C
Humidity: 61%
Barometer: 1015.9 hPa
Clouds: Clear
Visibility: 16 km
2019/09/20 21:56 KBHB 202156Z AUTO 26003KT 10SM CLR 22/14 A3000 RMK AO2 SLP162 T02220144
 
CWIY - St Leonard Autob, New Brunswick
Distance from station: NNW 166km
Updated: Sun, 05-Feb-2017 10:00am AST
NOT Current

 Wind from SE
Wind: SE 15 km/h
Temperature: -15°C
Wind Chill: -23°C
Dew Point: -16°C
Humidity: 92%
2017/02/05 14:00 CWIY 051400Z AUTO 14008KT M15/M16 RMK AO1 SLP145 T11511164 58018
CYSL - Saint Leonard Ar, New Brunswick
Distance from station: NNW 166km
Updated: Mon, 30-Jun-2014 5:00pm ADT
NOT Current
Haze, Partly cloudy
Haze, Partly cloudy
 Wind from W
Wind: W 9 km/h
Temperature: 30°C
Heat Index: 31°C
Dew Point: 17°C
Humidity: 46%
Barometer: 1009.8 hPa
Summary: Haze
Clouds: Partly cloudy
Visibility: 5 km
Cloud details: Partly cloudy 914 m
2014/06/30 20:00 CYSL 302000Z 28005KT 3SM HZ SCT030 30/17 A2982 RMK CU4 LAST OFFICIAL OBS/STATION CLOSING PERMANENTLY/ ANY OBS AFTER THIS IS NOT DONE BY CERTIFIED PERSON/ SLP097
 
CWVU - Brier Island(Aut, Nova Scotia
Distance from station: S 177km
Updated: Fri, 20-Sep-2019 7:00pm ADT

 Wind from WSW
Wind: WSW 15 km/h
Temperature: 15°C
Dew Point: 12°C
Humidity: 82%
2019/09/20 22:00 CWVU 202200Z AUTO 24008KT 15/12 RMK AO1 SLP159 T01460122 56014
CXNP - Nappan (auto), Nova Scotia
Distance from station: E 191km
Updated: Fri, 20-Sep-2019 7:00pm ADT

 Wind from W
Wind: W 4 km/h
Temperature: 17°C
Dew Point: 12°C
Humidity: 73%
2019/09/20 22:00 CXNP 202200Z AUTO 26002KT 17/12 RMK AO1 SLP122 T01680120 56011
 
CXKT - Kentville (autob, Nova Scotia
Distance from station: ESE 193km
Updated: Fri, 20-Sep-2019 7:00pm ADT

 Wind from W
Wind: W 15 km/h
Temperature: 19°C
Dew Point: 11°C
Humidity: 60%
2019/09/20 22:00 CXKT 202200Z AUTO 26008KT 19/11 RMK AO1 SLP122 T01860108 55009
CWKG - Kejimkujik (au8), Nova Scotia
Distance from station: SE 197km
Updated: Fri, 20-Sep-2019 7:00pm ADT

 Wind from WNW
Wind: WNW 4 km/h
Temperature: 18°C
Dew Point: 12°C
Humidity: 68%
2019/09/20 22:00 CWKG 202200Z AUTO 29002KT 18/12 RMK AO1 SLP140 T01800123 55007
 
KFVE - Frenchville, Maine, USA
Distance from station: NW 201km
Updated: Fri, 20-Sep-2019 6:53pm ADT
Clear
Clear
 Wind from NW
Wind: NW 24 km/h, Gust: 39 km/h
Temperature: 21°C
Dew Point: 14°C
Humidity: 64%
Barometer: 1014.9 hPa
Clouds: Clear
Visibility: 16 km
2019/09/20 21:53 KFVE 202153Z AUTO 32013G21KT 10SM CLR 21/14 A2997 RMK AO2 SLP148 T02060139
CZBF - Bathurst Arpt(Aw, New Brunswick
Distance from station: NNE 208km
Updated: Fri, 20-Sep-2019 7:00pm ADT
Mostly cloudy
Mostly cloudy
 Wind from WNW
Wind: WNW 22 km/h, Gust: 33 km/h
Temperature: 22°C
Dew Point: 15°C
Humidity: 65%
Barometer: 1012.2 hPa
Clouds: Mostly cloudy
Visibility: 14 km
Cloud details: Mostly cloudy 2286 m
2019/09/20 22:00 CZBF 202200Z AUTO 30012G18KT 9SM BKN075 22/15 A2989 RMK SLP123 DENSITY ALT 1100FT
 
CERM - Edmunston, New Brunswick
Distance from station: NW 213km
Updated: Fri, 20-Sep-2019 7:00pm ADT

 Wind from NW
Wind: NW 7 km/h
Temperature: 21°C
Dew Point: 15°C
Humidity: 69%
2019/09/20 22:00 CERM 202200Z AUTO 32004KT 21/15 RMK AO1 SLP149 T02120150 53001
KGNR - Greenville, Maine, USA
Distance from station: W 226km
Updated: Fri, 20-Sep-2019 6:56pm ADT

 Wind from NW
Wind: NW 17 km/h
Temperature: 20°C
Dew Point: 12°C
Humidity: 60%
Barometer: 1017.3 hPa
2019/09/20 21:56 KGNR 202156Z AUTO 31009KT 20/12 A3004 RMK AO1 SLP173 T02000117
 
CWSD - Summerside (auto, PEI
Distance from station: ENE 228km
Updated: Fri, 20-Sep-2019 7:00pm ADT

 Wind from W
Wind: W 11 km/h
Temperature: 21°C
Dew Point: 14°C
Humidity: 64%
2019/09/20 22:00 CWSD 202200Z AUTO 27006KT 21/14 RMK AO1 SLP104 T02100142 56012
K40B - Clayton Lake, Maine, USA
Distance from station: WNW 233km
Updated: Fri, 20-Sep-2019 7:16pm ADT

 Wind from varies
Wind: varies 9 km/h, Gust: 22 km/h
Temperature: 20°C
Dew Point: 14°C
Humidity: 69%
Barometer: 1016.6 hPa
2019/09/20 22:16 K40B 202216Z AUTO VRB05G12KT 20/14 A3002 RMK AO1 SLP162 T02020135 53005
 
CZCR - Charlo Airport, New Brunswick
Distance from station: N 236km
Updated: Fri, 20-Sep-2019 7:00pm ADT

 Wind from W
Wind: W 11 km/h
Temperature: 21°C
Dew Point: 15°C
Humidity: 69%
2019/09/20 22:00 CZCR 202200Z AUTO 27006KT 21/15 RMK AO1 PK WND 28017/2117 SLP126 T02100154 53007
CWNE - North Point (aut, Ontario
Distance from station: NE 246km
Updated: Fri, 20-Sep-2019 7:00pm ADT

 Wind from WSW
Wind: WSW 22 km/h
Temperature: 17°C
Dew Point: 14°C
Humidity: 83%
2019/09/20 22:00 CWNE 202200Z AUTO 24012KT 17/14 RMK AO1 SLP098 T01710138 56010
 
CXLB - Lunenburg, Nova Scotia
Distance from station: SE 250km
Updated: Fri, 20-Sep-2019 7:00pm ADT

 Wind from W
Wind: W 13 km/h
Temperature: 21°C
Dew Point: 12°C
Humidity: 57%
2019/09/20 22:00 CXLB 202200Z AUTO 28007KT 21/12 RMK AO1 SLP118 T02080119 55006
CZDB - Debert, Nova Scotia
Distance from station: E 255km
Updated: Fri, 20-Sep-2019 7:00pm ADT

 Wind from SW
Wind: SW 9 km/h
Temperature: 16°C
Dew Point: 12°C
Humidity: 77%
2019/09/20 22:00 CZDB 202200Z AUTO 23005KT 16/12 RMK AO1 SLP120 T01590119 55008
 
CWOC - New Carlisle1, Quebec
Distance from station: NNE 262km
Updated: Fri, 20-Sep-2019 7:00pm ADT

 Wind from WNW
Wind: WNW 11 km/h
Temperature: 19°C
Dew Point: 15°C
Humidity: 78%
2019/09/20 22:00 CWOC 202200Z AUTO 30006KT 19/15 RMK AO1 SLP111 T01930150 53002
CWWE - Western Head (ma, Nova Scotia
Distance from station: SE 264km
Updated: Fri, 20-Sep-2019 7:00pm ADT

 Wind from W
Wind: W 9 km/h
Temperature: 20°C
Dew Point: 11°C
Humidity: 56%
2019/09/20 22:00 CWWE 202200Z AUTO 28005KT 20/11 RMK AO1 SLP129 T01970112 55006
 
KRKD - Rockland/Knox, Maine, USA
Distance from station: SW 274km
Updated: Fri, 20-Sep-2019 6:56pm ADT
Few Clouds
Few Clouds
 Wind from WSW
Wind: WSW 15 km/h
Temperature: 22°C
Dew Point: 15°C
Humidity: 65%
Barometer: 1016.6 hPa
Clouds: Few Clouds
Visibility: 16 km
Cloud details: Few Clouds 30 m
2019/09/20 21:56 KRKD 202156Z AUTO 25008KT 10SM FEW001 22/15 A3002 RMK AO2 SLP165 T02170150
CAHR - Harrington Cda, Ontario
Distance from station: ENE 277km
Updated: Fri, 20-Sep-2019 7:00pm ADT

 Wind from W
Wind: W 2 km/h
Temperature: 20°C
Dew Point: 14°C
Humidity: 69%
2019/09/20 22:00 CAHR 202200Z AUTO 28001KT 20/14 RMK AO1 SLP107 T02020138 56010
 
KWVL - Waterville, Maine, USA
Distance from station: WSW 277km
Updated: Fri, 20-Sep-2019 6:56pm ADT
Clear
Clear
 Wind from WSW
Wind: WSW 7 km/h
Temperature: 21°C
Dew Point: 16°C
Humidity: 73%
Barometer: 1016.3 hPa
Clouds: Clear
Visibility: 16 km
2019/09/20 21:56 KWVL 202156Z AUTO 25004KT 10SM CLR 21/16 A3001 RMK AO2 SLP189 T02060156
CYYG - Charlottetown Ar, PEI
Distance from station: E 280km
Updated: Fri, 20-Sep-2019 7:00pm ADT
Few Clouds
Few Clouds
 Wind from WNW
Wind: WNW 7 km/h
Temperature: 21°C
Dew Point: 14°C
Humidity: 64%
Barometer: 1010.5 hPa
Clouds: Few Clouds
Visibility: 24 km
Cloud details: Few Clouds 8534 m
2019/09/20 22:00 CYYG 202200Z 29004KT 15SM FEW280 21/14 A2984 RMK CI1 SLP107 DENSITY ALT 1000FT
 
CXMI - Mcnabs Island, Nova Scotia
Distance from station: ESE 284km
Updated: Fri, 20-Sep-2019 7:00pm ADT

 Wind from W
Wind: W 2 km/h
Temperature: 18°C
2019/09/20 22:00 CXMI 202200Z AUTO 27001KT 18/ RMK AO1 T0176
CWZS - Amqui, Quebec
Distance from station: N 296km
Updated: Mon, 08-Jul-2019 7:00pm ADT
NOT Current

 Wind from SSW
Wind: SSW 7 km/h
Temperature: 15°C
Dew Point: 13°C
Humidity: 88%
2019/07/08 22:00 CWZS 082200Z AUTO 20004KT 15/13 RMK AO1 SLP080 T01490131 50015
 
KAUG - Augusta, Maine, USA
Distance from station: SW 298km
Updated: Fri, 20-Sep-2019 6:53pm ADT
Clear
Clear
 Wind from W
Wind: W 7 km/h
Temperature: 24°C
Dew Point: 13°C
Humidity: 50%
Barometer: 1017.3 hPa
Clouds: Clear
Visibility: 16 km
2019/09/20 21:53 KAUG 202153Z AUTO 26004KT 10SM CLR 24/13 A3004 RMK AO2 SLP173 T02390128
CWST - La Pocatiere, Quebec
Distance from station: NW 303km
Updated: Fri, 20-Sep-2019 7:00pm ADT

 Wind from W
Wind: W 13 km/h
Temperature: 21°C
Dew Point: 15°C
Humidity: 69%
2019/09/20 22:00 CWST 202200Z AUTO 27007KT 21/15 RMK AO1 SLP165 T02110146 53008
 
CWNH - Riviere Du Loup, Quebec
Distance from station: NW 304km
Updated: Fri, 20-Sep-2019 7:00pm ADT

 Wind from W
Wind: W 7 km/h
Temperature: 18°C
Dew Point: 13°C
Humidity: 73%
2019/09/20 22:00 CWNH 202200Z AUTO 26004KT 18/13 RMK AO1 SLP167 T01820132 53005
CWBK - Caribou Point(Ma, Nova Scotia
Distance from station: E 312km
Updated: Fri, 20-Sep-2019 7:00pm ADT

 Wind from W
Wind: W 6 km/h
Temperature: 18°C
Dew Point: 12°C
Humidity: 68%
2019/09/20 22:00 CWBK 202200Z AUTO 26003KT 18/12 RMK AO1 SLP111 T01750120 55011
 
CWHV - Beauceville, Quebec
Distance from station: W 317km
Updated: Fri, 20-Sep-2019 7:00pm ADT

 Wind from WNW
Wind: WNW 4 km/h
Temperature: 21°C
Dew Point: 13°C
Humidity: 60%
2019/09/20 22:00 CWHV 202200Z AUTO 30002KT 21/13 RMK AO1 SLP184 T02050134 53002
KIWI - Wiscasset, Maine, USA
Distance from station: SW 318km
Updated: Fri, 20-Sep-2019 6:53pm ADT
Clear
Clear
 Wind from SW
Wind: SW 6 km/h
Temperature: 23°C
Dew Point: 13°C
Humidity: 53%
Barometer: 1017.6 hPa
Clouds: Clear
Visibility: 16 km
2019/09/20 21:53 KIWI 202153Z AUTO 23003KT 10SM CLR 23/13 A3005 RMK AO2 SLP175 T02280133